»·PEaware :: N973DM koxr-kpmd

N973DM :: koxr-kpmd

FLIGHT INFORMATION

Flight Status: Arrived
Operator: Privately registered:
United States
More flights under this callsign
Pilot: Anonymous 1328 (1328)
Aircraft: CIRRUS SR-20
(SR20)
More flights by this aircraft type
Origin: koxr Oxnard
United States
Destination: kpmd Palmdale AF Plant 42
United States
More flights between these airports :: More routes between these airports
Route: +FIM V386 PMD
File this flight plan on PilotEdge
Remarks: EXPECT IMC ENROUTE
Altitude:
(Current/Filed)
5,000ft
Speed:
(Current/Filed)
145kts
Departed: 10-Jan-13 05:10 PM
Arrived: 10-Jan-13 05:55 PM
Distance/Time
Traveled:
61nm/0:45
Distance/Time
To Go:
Arrived

Flight Plot

Page will automatically refresh every two minutes.

Flight plan parsing failed; only flown route is shown


Map Options




Map Legend


Flown Route
Filed Route
Departure Airport
Arrival Airport
Navaid (VOR, NDB)
Fix

Horizontal Profiles

Position Reports

Time Latitude Longitude Heading Altitude Ground
Speed
10-Jan-13 16:57 34.199644 -119.216932 324 45ft 0kts
10-Jan-13 16:58 34.199644 -119.216932 324 45ft 0kts
10-Jan-13 16:59 34.199644 -119.216932 324 45ft 0kts
10-Jan-13 17:00 34.199644 -119.216932 324 45ft 0kts
10-Jan-13 17:01 34.199644 -119.216932 324 45ft 0kts
10-Jan-13 17:02 34.199644 -119.216932 324 45ft 0kts
10-Jan-13 17:03 34.199644 -119.216932 324 45ft 0kts
10-Jan-13 17:04 34.199644 -119.216932 324 45ft 0kts
10-Jan-13 17:05 34.199644 -119.216932 324 45ft 0kts
10-Jan-13 17:06 34.199644 -119.216932 324 45ft 0kts
10-Jan-13 17:07 34.199644 -119.216932 324 45ft 0kts
10-Jan-13 17:08 34.199658 -119.216944 323 45ft 3kts
10-Jan-13 17:09 34.200046 -119.216790 97 45ft 6kts
10-Jan-13 17:10 34.199725 -119.205409 93 45ft 51kts
10-Jan-13 17:11 34.199771 -119.197697 17 45ft 0kts
10-Jan-13 17:12 34.199868 -119.197664 14 45ft 7kts
10-Jan-13 17:13 34.200910 -119.212942 269 310ft 91kts
10-Jan-13 17:14 34.200724 -119.242602 269 1231ft 98kts
10-Jan-13 17:15 34.203757 -119.275569 326 1865ft 112kts
10-Jan-13 17:16 34.221818 -119.256963 76 2632ft 104kts
10-Jan-13 17:17 34.232801 -119.223361 75 3351ft 109kts
10-Jan-13 17:18 34.247505 -119.189224 58 4056ft 113kts
10-Jan-13 17:19 34.259496 -119.153648 66 4741ft 116kts
10-Jan-13 17:20 34.273270 -119.115673 67 5118ft 134kts
10-Jan-13 17:21 34.290244 -119.070786 66 4983ft 157kts
10-Jan-13 17:22 34.307195 -119.022633 66 4984ft 154kts
10-Jan-13 17:23 34.323904 -118.974863 66 4984ft 154kts
10-Jan-13 17:24 34.340597 -118.927057 66 4984ft 154kts
10-Jan-13 17:25 34.357456 -118.879300 67 4984ft 154kts
10-Jan-13 17:26 34.373817 -118.831371 67 4984ft 154kts
10-Jan-13 17:27 34.390126 -118.783335 67 4984ft 154kts
10-Jan-13 17:28 34.403726 -118.743216 67 4984ft 154kts
10-Jan-13 17:29 34.422704 -118.687148 67 4984ft 154kts
10-Jan-13 17:30 34.438973 -118.639004 67 4984ft 154kts
10-Jan-13 17:31 34.455183 -118.590958 67 4984ft 154kts
10-Jan-13 17:32 34.468580 -118.551172 67 5157ft 143kts
10-Jan-13 17:33 34.482142 -118.510798 67 5883ft 122kts
10-Jan-13 17:34 34.495030 -118.472345 67 6459ft 119kts
10-Jan-13 17:35 34.507218 -118.435815 67 7004ft 123kts
10-Jan-13 17:36 34.524169 -118.384948 67 6998ft 149kts
10-Jan-13 17:37 34.537350 -118.345285 67 6997ft 154kts
10-Jan-13 17:38 34.553129 -118.297758 67 6995ft 148kts
10-Jan-13 17:39 34.568496 -118.251424 67 6996ft 148kts
10-Jan-13 17:40 34.586734 -118.196948 67 6976ft 149kts
10-Jan-13 17:41 34.599712 -118.158209 67 6976ft 149kts
10-Jan-13 17:42 34.619147 -118.115349 22 6975ft 148kts
10-Jan-13 17:43 34.639660 -118.075945 71 6902ft 155kts
10-Jan-13 17:44 34.640997 -118.025986 90 6830ft 159kts
10-Jan-13 17:45 34.638524 -117.971531 87 6355ft 163kts
10-Jan-13 17:46 34.641683 -117.919997 87 5802ft 156kts
10-Jan-13 17:47 34.631616 -117.881911 150 5383ft 132kts
10-Jan-13 17:48 34.643842 -117.851212 320 4767ft 138kts
10-Jan-13 17:49 34.641974 -117.891404 269 4298ft 124kts
10-Jan-13 17:50 34.642238 -117.931185 263 4001ft 98kts
10-Jan-13 17:51 34.638890 -117.966783 261 4335ft 109kts
10-Jan-13 17:52 34.635064 -118.003944 261 3710ft 113kts
10-Jan-13 17:53 34.634409 -118.041356 267 3130ft 109kts
10-Jan-13 17:54 34.632531 -118.077020 265 2561ft 84kts
10-Jan-13 17:55 34.632321 -118.084130 262 2545ft 0kts

Navigation Log

Ident Type
Flight plan parsing failed, navigation log unavailable